Juquitiba, Brazil
Current Conditions -  °F | °C
As of 10:00 PM on Wednesday 22 Oct 2014 (Local Time) from SBSP Reporting Station
Overcast Overcast  
Wind Chill: 61°   Ceiling: 700
Heat Index: 61°   Visibility: 6mi
Dew Point: 55°   Wind: 9mph
Humidity: 82%   Direction: 130°SE
Pressure: 30.21"   Gusts: NA
Location:  23.95°S, 47.05°W
Report Text: SBSP 230000Z 13008KT 9999 OVC007 16/13 Q1023
Loading
Personal Weather Stations






























Interactive Weather Map
Tropical Storm Tracking
New forecast layout! Learn more

10-Day Weather Forecast

Advertisements
Track Severe Weather on mobile